sensor_id;sensor_type;location;lat;lon;timestamp;P1;durP1;ratioP1;P2;durP2;ratioP2
21018;SDS011;10667;51.056;3.732;2022-10-17T00:00:21;12.32;;;9.43;;
21018;SDS011;10667;51.056;3.732;2022-10-17T00:02:47;11.13;;;9.43;;
21018;SDS011;10667;51.056;3.732;2022-10-17T00:05:12;14.52;;;9.70;;
21018;SDS011;10667;51.056;3.732;2022-10-17T00:07:38;14.32;;;9.70;;
21018;SDS011;10667;51.056;3.732;2022-10-17T00:10:05;12.77;;;9.98;;
21018;SDS011;10667;51.056;3.732;2022-10-17T00:12:31;11.73;;;9.30;;
21018;SDS011;10667;51.056;3.732;2022-10-17T00:14:57;13.77;;;9.43;;
21018;SDS011;10667;51.056;3.732;2022-10-17T00:17:22;13.98;;;9.65;;
21018;SDS011;10667;51.056;3.732;2022-10-17T00:19:48;13.73;;;9.32;;
21018;SDS011;10667;51.056;3.732;2022-10-17T00:22:14;12.82;;;9.38;;
21018;SDS011;10667;51.056;3.732;2022-10-17T00:24:40;11.82;;;9.40;;
21018;SDS011;10667;51.056;3.732;2022-10-17T00:27:05;14.55;;;10.35;;
21018;SDS011;10667;51.056;3.732;2022-10-17T00:29:31;15.18;;;9.60;;
21018;SDS011;10667;51.056;3.732;2022-10-17T00:31:57;16.00;;;9.90;;
21018;SDS011;10667;51.056;3.732;2022-10-17T00:34:23;16.98;;;9.15;;
21018;SDS011;10667;51.056;3.732;2022-10-17T00:36:49;14.05;;;8.45;;
21018;SDS011;10667;51.056;3.732;2022-10-17T00:39:14;10.93;;;8.07;;
21018;SDS011;10667;51.056;3.732;2022-10-17T00:41:40;10.77;;;8.35;;
21018;SDS011;10667;51.056;3.732;2022-10-17T00:44:53;14.85;;;8.35;;
21018;SDS011;10667;51.056;3.732;2022-10-17T00:46:58;14.18;;;8.90;;
21018;SDS011;10667;51.056;3.732;2022-10-17T00:49:31;10.30;;;7.22;;
21018;SDS011;10667;51.056;3.732;2022-10-17T00:52:00;11.50;;;7.50;;
21018;SDS011;10667;51.056;3.732;2022-10-17T00:54:31;11.18;;;7.85;;
21018;SDS011;10667;51.056;3.732;2022-10-17T00:57:03;11.48;;;7.50;;
21018;SDS011;10667;51.056;3.732;2022-10-17T00:59:31;9.93;;;7.53;;
21018;SDS011;10667;51.056;3.732;2022-10-17T01:02:03;14.23;;;7.57;;
21018;SDS011;10667;51.056;3.732;2022-10-17T01:04:31;9.68;;;7.35;;
21018;SDS011;10667;51.056;3.732;2022-10-17T01:06:56;11.57;;;7.60;;
21018;SDS011;10667;51.056;3.732;2022-10-17T01:09:23;10.48;;;7.50;;
21018;SDS011;10667;51.056;3.732;2022-10-17T01:11:55;9.15;;;7.00;;
21018;SDS011;10667;51.056;3.732;2022-10-17T01:14:42;9.20;;;6.90;;
21018;SDS011;10667;51.056;3.732;2022-10-17T01:31:24;8.32;;;6.80;;
21018;SDS011;10667;51.056;3.732;2022-10-17T01:34:00;8.73;;;7.20;;
21018;SDS011;10667;51.056;3.732;2022-10-17T01:38:59;12.13;;;6.60;;
21018;SDS011;10667;51.056;3.732;2022-10-17T01:41:37;16.88;;;7.57;;
21018;SDS011;10667;51.056;3.732;2022-10-17T01:44:39;9.40;;;7.38;;
21018;SDS011;10667;51.056;3.732;2022-10-17T01:47:07;14.23;;;8.23;;
21018;SDS011;10667;51.056;3.732;2022-10-17T01:49:37;14.35;;;7.38;;
21018;SDS011;10667;51.056;3.732;2022-10-17T01:52:07;8.82;;;7.07;;
21018;SDS011;10667;51.056;3.732;2022-10-17T01:54:44;10.90;;;7.22;;
21018;SDS011;10667;51.056;3.732;2022-10-17T01:57:32;10.63;;;7.13;;
21018;SDS011;10667;51.056;3.732;2022-10-17T02:00:03;9.27;;;7.05;;
21018;SDS011;10667;51.056;3.732;2022-10-17T02:02:33;11.38;;;7.80;;
21018;SDS011;10667;51.056;3.732;2022-10-17T02:05:00;15.23;;;7.60;;
21018;SDS011;10667;51.056;3.732;2022-10-17T02:07:27;8.88;;;7.25;;
21018;SDS011;10667;51.056;3.732;2022-10-17T02:09:53;12.20;;;7.28;;
21018;SDS011;10667;51.056;3.732;2022-10-17T02:17:52;10.80;;;7.03;;
21018;SDS011;10667;51.056;3.732;2022-10-17T02:25:39;13.95;;;7.13;;
21018;SDS011;10667;51.056;3.732;2022-10-17T02:28:20;8.75;;;7.18;;
21018;SDS011;10667;51.056;3.732;2022-10-17T02:31:01;18.67;;;8.02;;
21018;SDS011;10667;51.056;3.732;2022-10-17T02:33:31;13.20;;;7.53;;
21018;SDS011;10667;51.056;3.732;2022-10-17T02:36:08;12.23;;;7.60;;
21018;SDS011;10667;51.056;3.732;2022-10-17T02:38:37;9.60;;;7.28;;
21018;SDS011;10667;51.056;3.732;2022-10-17T02:41:06;9.27;;;6.78;;
21018;SDS011;10667;51.056;3.732;2022-10-17T02:43:35;9.85;;;6.57;;
21018;SDS011;10667;51.056;3.732;2022-10-17T02:46:02;11.55;;;6.47;;
21018;SDS011;10667;51.056;3.732;2022-10-17T02:48:31;12.05;;;6.90;;
21018;SDS011;10667;51.056;3.732;2022-10-17T02:53:33;16.40;;;6.85;;
21018;SDS011;10667;51.056;3.732;2022-10-17T02:56:13;8.95;;;7.38;;
21018;SDS011;10667;51.056;3.732;2022-10-17T02:58:42;8.57;;;6.32;;
21018;SDS011;10667;51.056;3.732;2022-10-17T03:01:13;11.20;;;6.80;;
21018;SDS011;10667;51.056;3.732;2022-10-17T03:03:39;7.97;;;6.43;;
21018;SDS011;10667;51.056;3.732;2022-10-17T03:06:05;9.50;;;7.07;;
21018;SDS011;10667;51.056;3.732;2022-10-17T03:08:30;11.60;;;6.97;;
21018;SDS011;10667;51.056;3.732;2022-10-17T03:10:56;9.63;;;7.00;;
21018;SDS011;10667;51.056;3.732;2022-10-17T03:13:22;7.38;;;5.97;;
21018;SDS011;10667;51.056;3.732;2022-10-17T03:15:48;11.30;;;6.10;;
21018;SDS011;10667;51.056;3.732;2022-10-17T03:18:14;9.38;;;6.70;;
21018;SDS011;10667;51.056;3.732;2022-10-17T03:20:39;9.25;;;5.90;;
21018;SDS011;10667;51.056;3.732;2022-10-17T03:23:05;9.98;;;6.43;;
21018;SDS011;10667;51.056;3.732;2022-10-17T03:25:31;13.07;;;6.97;;
21018;SDS011;10667;51.056;3.732;2022-10-17T03:27:57;10.52;;;6.20;;
21018;SDS011;10667;51.056;3.732;2022-10-17T03:30:24;8.23;;;5.68;;
21018;SDS011;10667;51.056;3.732;2022-10-17T03:32:50;9.52;;;6.13;;
21018;SDS011;10667;51.056;3.732;2022-10-17T03:35:15;12.45;;;6.57;;
21018;SDS011;10667;51.056;3.732;2022-10-17T03:37:41;9.63;;;6.60;;
21018;SDS011;10667;51.056;3.732;2022-10-17T03:40:07;11.10;;;7.18;;
21018;SDS011;10667;51.056;3.732;2022-10-17T03:42:33;10.50;;;7.05;;
21018;SDS011;10667;51.056;3.732;2022-10-17T03:44:58;9.10;;;6.57;;
21018;SDS011;10667;51.056;3.732;2022-10-17T03:47:24;7.95;;;6.28;;
21018;SDS011;10667;51.056;3.732;2022-10-17T03:49:49;11.55;;;7.47;;
21018;SDS011;10667;51.056;3.732;2022-10-17T03:52:17;10.23;;;6.50;;
21018;SDS011;10667;51.056;3.732;2022-10-17T03:54:43;10.93;;;6.38;;
21018;SDS011;10667;51.056;3.732;2022-10-17T03:57:08;9.80;;;6.43;;
21018;SDS011;10667;51.056;3.732;2022-10-17T03:59:34;10.57;;;6.78;;
21018;SDS011;10667;51.056;3.732;2022-10-17T04:02:00;10.30;;;6.38;;
21018;SDS011;10667;51.056;3.732;2022-10-17T04:04:25;9.43;;;6.60;;
21018;SDS011;10667;51.056;3.732;2022-10-17T04:06:51;11.32;;;7.00;;
21018;SDS011;10667;51.056;3.732;2022-10-17T04:09:17;9.63;;;6.97;;
21018;SDS011;10667;51.056;3.732;2022-10-17T04:11:42;10.25;;;6.60;;
21018;SDS011;10667;51.056;3.732;2022-10-17T04:14:08;11.50;;;6.90;;
21018;SDS011;10667;51.056;3.732;2022-10-17T04:16:34;14.38;;;6.80;;
21018;SDS011;10667;51.056;3.732;2022-10-17T04:19:00;12.05;;;6.80;;
21018;SDS011;10667;51.056;3.732;2022-10-17T04:21:27;10.77;;;7.20;;
21018;SDS011;10667;51.056;3.732;2022-10-17T04:23:54;10.30;;;7.32;;
21018;SDS011;10667;51.056;3.732;2022-10-17T04:26:20;13.40;;;7.72;;
21018;SDS011;10667;51.056;3.732;2022-10-17T04:28:47;11.88;;;7.45;;
21018;SDS011;10667;51.056;3.732;2022-10-17T04:31:13;12.13;;;8.15;;
21018;SDS011;10667;51.056;3.732;2022-10-17T04:33:40;15.02;;;7.68;;
21018;SDS011;10667;51.056;3.732;2022-10-17T04:36:08;11.55;;;7.32;;
21018;SDS011;10667;51.056;3.732;2022-10-17T04:38:36;11.02;;;8.02;;
21018;SDS011;10667;51.056;3.732;2022-10-17T04:41:03;10.48;;;6.85;;
21018;SDS011;10667;51.056;3.732;2022-10-17T04:43:34;11.05;;;7.03;;
21018;SDS011;10667;51.056;3.732;2022-10-17T04:46:02;11.05;;;7.30;;
21018;SDS011;10667;51.056;3.732;2022-10-17T04:48:30;11.77;;;6.97;;
21018;SDS011;10667;51.056;3.732;2022-10-17T04:50:56;13.95;;;7.20;;
21018;SDS011;10667;51.056;3.732;2022-10-17T04:53:42;12.50;;;7.13;;
21018;SDS011;10667;51.056;3.732;2022-10-17T04:58:36;9.13;;;6.72;;
21018;SDS011;10667;51.056;3.732;2022-10-17T05:01:06;12.52;;;6.50;;
21018;SDS011;10667;51.056;3.732;2022-10-17T05:03:33;12.13;;;8.27;;
21018;SDS011;10667;51.056;3.732;2022-10-17T05:06:02;10.13;;;7.15;;
21018;SDS011;10667;51.056;3.732;2022-10-17T05:08:31;15.30;;;7.90;;
21018;SDS011;10667;51.056;3.732;2022-10-17T05:10:57;10.35;;;7.07;;
21018;SDS011;10667;51.056;3.732;2022-10-17T05:13:23;9.15;;;6.93;;
21018;SDS011;10667;51.056;3.732;2022-10-17T05:15:48;14.43;;;8.38;;
21018;SDS011;10667;51.056;3.732;2022-10-17T05:18:14;13.90;;;7.85;;
21018;SDS011;10667;51.056;3.732;2022-10-17T05:20:40;14.70;;;9.55;;
21018;SDS011;10667;51.056;3.732;2022-10-17T05:23:05;11.82;;;9.20;;
21018;SDS011;10667;51.056;3.732;2022-10-17T05:25:31;11.50;;;8.57;;
21018;SDS011;10667;51.056;3.732;2022-10-17T05:27:57;14.00;;;8.02;;
21018;SDS011;10667;51.056;3.732;2022-10-17T05:30:22;12.05;;;8.63;;
21018;SDS011;10667;51.056;3.732;2022-10-17T05:32:52;11.38;;;8.00;;
21018;SDS011;10667;51.056;3.732;2022-10-17T05:35:18;11.30;;;7.55;;
21018;SDS011;10667;51.056;3.732;2022-10-17T05:37:44;11.30;;;7.10;;
21018;SDS011;10667;51.056;3.732;2022-10-17T05:40:10;11.02;;;6.78;;
21018;SDS011;10667;51.056;3.732;2022-10-17T05:42:36;7.75;;;6.78;;
21018;SDS011;10667;51.056;3.732;2022-10-17T05:45:02;8.45;;;6.22;;
21018;SDS011;10667;51.056;3.732;2022-10-17T05:47:29;8.82;;;6.95;;
21018;SDS011;10667;51.056;3.732;2022-10-17T05:49:54;12.77;;;6.55;;
21018;SDS011;10667;51.056;3.732;2022-10-17T05:52:20;12.43;;;6.70;;
21018;SDS011;10667;51.056;3.732;2022-10-17T05:54:45;12.75;;;7.40;;
21018;SDS011;10667;51.056;3.732;2022-10-17T05:57:11;14.43;;;7.05;;
21018;SDS011;10667;51.056;3.732;2022-10-17T05:59:37;10.93;;;6.78;;
21018;SDS011;10667;51.056;3.732;2022-10-17T06:02:02;10.32;;;7.70;;
21018;SDS011;10667;51.056;3.732;2022-10-17T06:04:28;9.15;;;7.38;;
21018;SDS011;10667;51.056;3.732;2022-10-17T06:06:54;10.57;;;7.10;;
21018;SDS011;10667;51.056;3.732;2022-10-17T06:09:20;18.60;;;11.95;;
21018;SDS011;10667;51.056;3.732;2022-10-17T06:11:47;19.23;;;8.10;;
21018;SDS011;10667;51.056;3.732;2022-10-17T06:14:12;19.58;;;9.20;;
21018;SDS011;10667;51.056;3.732;2022-10-17T06:16:38;11.93;;;7.65;;
21018;SDS011;10667;51.056;3.732;2022-10-17T06:19:04;13.50;;;6.43;;
21018;SDS011;10667;51.056;3.732;2022-10-17T06:21:29;11.05;;;6.95;;
21018;SDS011;10667;51.056;3.732;2022-10-17T06:24:00;11.05;;;7.43;;
21018;SDS011;10667;51.056;3.732;2022-10-17T06:26:26;12.80;;;7.25;;
21018;SDS011;10667;51.056;3.732;2022-10-17T06:28:52;15.73;;;8.18;;
21018;SDS011;10667;51.056;3.732;2022-10-17T06:31:18;11.65;;;7.47;;
21018;SDS011;10667;51.056;3.732;2022-10-17T06:33:44;10.82;;;8.18;;
21018;SDS011;10667;51.056;3.732;2022-10-17T06:36:11;15.20;;;8.32;;
21018;SDS011;10667;51.056;3.732;2022-10-17T06:38:38;11.68;;;8.52;;
21018;SDS011;10667;51.056;3.732;2022-10-17T06:41:11;18.33;;;8.48;;
21018;SDS011;10667;51.056;3.732;2022-10-17T06:43:39;15.40;;;8.23;;
21018;SDS011;10667;51.056;3.732;2022-10-17T06:46:10;13.25;;;8.90;;
21018;SDS011;10667;51.056;3.732;2022-10-17T06:48:37;15.55;;;7.95;;
21018;SDS011;10667;51.056;3.732;2022-10-17T06:51:03;16.85;;;8.90;;
21018;SDS011;10667;51.056;3.732;2022-10-17T06:53:31;12.25;;;8.70;;
21018;SDS011;10667;51.056;3.732;2022-10-17T06:55:58;14.82;;;8.98;;
21018;SDS011;10667;51.056;3.732;2022-10-17T06:58:30;13.65;;;9.23;;
21018;SDS011;10667;51.056;3.732;2022-10-17T07:01:00;15.52;;;9.25;;
21018;SDS011;10667;51.056;3.732;2022-10-17T07:03:31;18.02;;;9.13;;
21018;SDS011;10667;51.056;3.732;2022-10-17T07:05:56;10.82;;;8.20;;
21018;SDS011;10667;51.056;3.732;2022-10-17T07:08:23;14.40;;;9.48;;
21018;SDS011;10667;51.056;3.732;2022-10-17T07:10:49;11.27;;;8.77;;
21018;SDS011;10667;51.056;3.732;2022-10-17T07:13:15;14.50;;;8.68;;
21018;SDS011;10667;51.056;3.732;2022-10-17T07:15:42;19.48;;;9.95;;
21018;SDS011;10667;51.056;3.732;2022-10-17T07:18:08;14.80;;;9.88;;
21018;SDS011;10667;51.056;3.732;2022-10-17T07:20:35;12.90;;;9.20;;
21018;SDS011;10667;51.056;3.732;2022-10-17T07:23:01;15.55;;;9.13;;
21018;SDS011;10667;51.056;3.732;2022-10-17T07:25:27;13.20;;;9.98;;
21018;SDS011;10667;51.056;3.732;2022-10-17T07:27:54;16.10;;;9.95;;
21018;SDS011;10667;51.056;3.732;2022-10-17T07:30:20;15.98;;;10.48;;
21018;SDS011;10667;51.056;3.732;2022-10-17T07:32:46;15.00;;;10.93;;
21018;SDS011;10667;51.056;3.732;2022-10-17T07:35:12;16.35;;;10.75;;
21018;SDS011;10667;51.056;3.732;2022-10-17T07:37:38;14.13;;;10.07;;
21018;SDS011;10667;51.056;3.732;2022-10-17T07:40:05;16.85;;;11.05;;
21018;SDS011;10667;51.056;3.732;2022-10-17T07:42:37;14.00;;;10.93;;
21018;SDS011;10667;51.056;3.732;2022-10-17T07:45:03;14.90;;;11.05;;
21018;SDS011;10667;51.056;3.732;2022-10-17T07:47:29;15.80;;;11.27;;
21018;SDS011;10667;51.056;3.732;2022-10-17T07:49:55;13.95;;;11.27;;
21018;SDS011;10667;51.056;3.732;2022-10-17T07:52:21;18.08;;;10.40;;
21018;SDS011;10667;51.056;3.732;2022-10-17T07:54:47;16.77;;;10.50;;
21018;SDS011;10667;51.056;3.732;2022-10-17T07:57:13;16.23;;;11.45;;
21018;SDS011;10667;51.056;3.732;2022-10-17T07:59:39;19.92;;;11.20;;
21018;SDS011;10667;51.056;3.732;2022-10-17T08:02:05;15.32;;;9.73;;
21018;SDS011;10667;51.056;3.732;2022-10-17T08:04:32;18.75;;;9.68;;
21018;SDS011;10667;51.056;3.732;2022-10-17T08:06:59;16.60;;;9.65;;
21018;SDS011;10667;51.056;3.732;2022-10-17T08:09:25;15.95;;;10.00;;
21018;SDS011;10667;51.056;3.732;2022-10-17T08:11:50;16.70;;;9.75;;
21018;SDS011;10667;51.056;3.732;2022-10-17T08:14:16;13.30;;;8.80;;
21018;SDS011;10667;51.056;3.732;2022-10-17T08:16:42;12.30;;;9.05;;
21018;SDS011;10667;51.056;3.732;2022-10-17T08:19:08;12.77;;;9.18;;
21018;SDS011;10667;51.056;3.732;2022-10-17T08:21:35;14.48;;;9.40;;
21018;SDS011;10667;51.056;3.732;2022-10-17T08:24:01;17.95;;;9.75;;
21018;SDS011;10667;51.056;3.732;2022-10-17T08:26:28;18.42;;;10.25;;
21018;SDS011;10667;51.056;3.732;2022-10-17T08:28:54;15.38;;;10.13;;
21018;SDS011;10667;51.056;3.732;2022-10-17T08:31:20;14.55;;;9.32;;
21018;SDS011;10667;51.056;3.732;2022-10-17T08:33:47;14.05;;;10.27;;
21018;SDS011;10667;51.056;3.732;2022-10-17T08:36:15;17.30;;;10.07;;
21018;SDS011;10667;51.056;3.732;2022-10-17T08:38:43;17.40;;;9.50;;
21018;SDS011;10667;51.056;3.732;2022-10-17T08:41:26;12.80;;;10.00;;
21018;SDS011;10667;51.056;3.732;2022-10-17T08:47:04;15.07;;;9.93;;
21018;SDS011;10667;51.056;3.732;2022-10-17T08:52:19;17.25;;;9.75;;
21018;SDS011;10667;51.056;3.732;2022-10-17T08:54:49;16.13;;;9.98;;
21018;SDS011;10667;51.056;3.732;2022-10-17T08:57:15;13.80;;;9.18;;
21018;SDS011;10667;51.056;3.732;2022-10-17T08:59:42;15.85;;;9.75;;
21018;SDS011;10667;51.056;3.732;2022-10-17T09:07:41;11.43;;;9.35;;
21018;SDS011;10667;51.056;3.732;2022-10-17T09:10:17;14.93;;;9.13;;
21018;SDS011;10667;51.056;3.732;2022-10-17T09:18:32;14.40;;;10.55;;
21018;SDS011;10667;51.056;3.732;2022-10-17T09:23:51;17.02;;;11.68;;
21018;SDS011;10667;51.056;3.732;2022-10-17T09:26:20;15.13;;;11.18;;
21018;SDS011;10667;51.056;3.732;2022-10-17T09:28:50;14.93;;;10.60;;
21018;SDS011;10667;51.056;3.732;2022-10-17T09:31:25;16.10;;;11.70;;
21018;SDS011;10667;51.056;3.732;2022-10-17T09:33:56;16.17;;;10.77;;
21018;SDS011;10667;51.056;3.732;2022-10-17T09:36:27;17.55;;;11.43;;
21018;SDS011;10667;51.056;3.732;2022-10-17T09:38:56;17.10;;;10.95;;
21018;SDS011;10667;51.056;3.732;2022-10-17T09:41:27;13.98;;;9.95;;
21018;SDS011;10667;51.056;3.732;2022-10-17T09:44:15;14.65;;;9.85;;
21018;SDS011;10667;51.056;3.732;2022-10-17T09:49:34;14.25;;;10.35;;
21018;SDS011;10667;51.056;3.732;2022-10-17T09:52:05;12.60;;;9.57;;
21018;SDS011;10667;51.056;3.732;2022-10-17T09:57:22;11.10;;;9.30;;
21018;SDS011;10667;51.056;3.732;2022-10-17T09:59:58;13.95;;;9.43;;
21018;SDS011;10667;51.056;3.732;2022-10-17T10:02:26;14.75;;;9.52;;
21018;SDS011;10667;51.056;3.732;2022-10-17T10:04:57;10.32;;;8.73;;
21018;SDS011;10667;51.056;3.732;2022-10-17T10:07:26;13.75;;;8.98;;
21018;SDS011;10667;51.056;3.732;2022-10-17T10:09:54;13.85;;;8.65;;
21018;SDS011;10667;51.056;3.732;2022-10-17T10:12:22;12.32;;;8.25;;
21018;SDS011;10667;51.056;3.732;2022-10-17T10:14:53;10.52;;;7.95;;
21018;SDS011;10667;51.056;3.732;2022-10-17T10:19:57;13.63;;;8.52;;
21018;SDS011;10667;51.056;3.732;2022-10-17T10:22:23;9.20;;;7.68;;
21018;SDS011;10667;51.056;3.732;2022-10-17T10:27:47;12.52;;;8.02;;
21018;SDS011;10667;51.056;3.732;2022-10-17T10:30:20;11.13;;;7.53;;
21018;SDS011;10667;51.056;3.732;2022-10-17T10:32:51;9.98;;;7.10;;
21018;SDS011;10667;51.056;3.732;2022-10-17T10:37:52;11.25;;;7.50;;
21018;SDS011;10667;51.056;3.732;2022-10-17T10:40:44;10.05;;;6.60;;
21018;SDS011;10667;51.056;3.732;2022-10-17T10:43:19;9.82;;;6.82;;
21018;SDS011;10667;51.056;3.732;2022-10-17T10:45:48;10.43;;;6.43;;
21018;SDS011;10667;51.056;3.732;2022-10-17T10:48:34;13.18;;;6.10;;
21018;SDS011;10667;51.056;3.732;2022-10-17T10:51:03;11.63;;;6.22;;
21018;SDS011;10667;51.056;3.732;2022-10-17T10:56:19;9.00;;;6.07;;
21018;SDS011;10667;51.056;3.732;2022-10-17T10:58:53;9.32;;;5.63;;
21018;SDS011;10667;51.056;3.732;2022-10-17T11:01:21;7.80;;;5.15;;
21018;SDS011;10667;51.056;3.732;2022-10-17T11:04:00;8.57;;;5.13;;
21018;SDS011;10667;51.056;3.732;2022-10-17T11:06:50;12.75;;;7.18;;
21018;SDS011;10667;51.056;3.732;2022-10-17T11:09:31;9.57;;;5.60;;
21018;SDS011;10667;51.056;3.732;2022-10-17T11:12:23;8.38;;;5.78;;
21018;SDS011;10667;51.056;3.732;2022-10-17T11:17:56;9.70;;;5.65;;
21018;SDS011;10667;51.056;3.732;2022-10-17T11:20:41;10.38;;;5.07;;
21018;SDS011;10667;51.056;3.732;2022-10-17T11:26:22;9.27;;;4.20;;
21018;SDS011;10667;51.056;3.732;2022-10-17T11:28:54;6.13;;;4.50;;
21018;SDS011;10667;51.056;3.732;2022-10-17T11:31:22;5.78;;;4.10;;
21018;SDS011;10667;51.056;3.732;2022-10-17T11:33:57;8.65;;;4.60;;
21018;SDS011;10667;51.056;3.732;2022-10-17T11:36:28;9.38;;;5.38;;
21018;SDS011;10667;51.056;3.732;2022-10-17T11:39:06;8.18;;;4.43;;
21018;SDS011;10667;51.056;3.732;2022-10-17T11:41:52;9.80;;;4.55;;
21018;SDS011;10667;51.056;3.732;2022-10-17T11:44:34;7.22;;;3.78;;
21018;SDS011;10667;51.056;3.732;2022-10-17T11:52:55;9.45;;;3.85;;
21018;SDS011;10667;51.056;3.732;2022-10-17T11:55:23;7.60;;;3.55;;
21018;SDS011;10667;51.056;3.732;2022-10-17T12:25:55;10.35;;;4.13;;
21018;SDS011;10667;51.056;3.732;2022-10-17T12:28:31;7.43;;;3.63;;
21018;SDS011;10667;51.056;3.732;2022-10-17T12:31:07;17.00;;;4.75;;
21018;SDS011;10667;51.056;3.732;2022-10-17T12:33:50;7.97;;;3.80;;
21018;SDS011;10667;51.056;3.732;2022-10-17T12:38:51;8.52;;;2.92;;
21018;SDS011;10667;51.056;3.732;2022-10-17T12:46:47;10.73;;;3.65;;
21018;SDS011;10667;51.056;3.732;2022-10-17T12:54:41;8.38;;;3.90;;
21018;SDS011;10667;51.056;3.732;2022-10-17T12:57:54;6.43;;;3.28;;
21018;SDS011;10667;51.056;3.732;2022-10-17T13:00:26;8.15;;;3.22;;
21018;SDS011;10667;51.056;3.732;2022-10-17T13:05:37;9.82;;;4.43;;
21018;SDS011;10667;51.056;3.732;2022-10-17T13:08:05;5.38;;;3.10;;
21018;SDS011;10667;51.056;3.732;2022-10-17T13:10:38;10.65;;;3.45;;
21018;SDS011;10667;51.056;3.732;2022-10-17T13:13:15;6.25;;;3.53;;
21018;SDS011;10667;51.056;3.732;2022-10-17T13:15:50;6.15;;;2.92;;
21018;SDS011;10667;51.056;3.732;2022-10-17T13:18:22;8.55;;;3.85;;
21018;SDS011;10667;51.056;3.732;2022-10-17T13:23:32;11.75;;;3.20;;
21018;SDS011;10667;51.056;3.732;2022-10-17T13:26:03;6.57;;;2.97;;
21018;SDS011;10667;51.056;3.732;2022-10-17T13:28:31;6.53;;;2.80;;
21018;SDS011;10667;51.056;3.732;2022-10-17T13:30:57;5.40;;;2.90;;
21018;SDS011;10667;51.056;3.732;2022-10-17T13:33:41;8.85;;;3.53;;
21018;SDS011;10667;51.056;3.732;2022-10-17T13:36:07;4.28;;;2.58;;
21018;SDS011;10667;51.056;3.732;2022-10-17T13:38:43;4.25;;;3.00;;
21018;SDS011;10667;51.056;3.732;2022-10-17T13:41:10;4.75;;;2.85;;
21018;SDS011;10667;51.056;3.732;2022-10-17T13:43:38;5.00;;;2.85;;
21018;SDS011;10667;51.056;3.732;2022-10-17T13:46:04;5.63;;;3.00;;
21018;SDS011;10667;51.056;3.732;2022-10-17T13:48:34;5.70;;;2.28;;
21018;SDS011;10667;51.056;3.732;2022-10-17T13:51:02;5.88;;;3.00;;
21018;SDS011;10667;51.056;3.732;2022-10-17T13:53:33;5.65;;;2.58;;
21018;SDS011;10667;51.056;3.732;2022-10-17T13:56:05;7.43;;;3.30;;
21018;SDS011;10667;51.056;3.732;2022-10-17T13:58:45;6.07;;;3.13;;
21018;SDS011;10667;51.056;3.732;2022-10-17T14:01:11;5.68;;;3.13;;
21018;SDS011;10667;51.056;3.732;2022-10-17T14:03:41;5.03;;;2.35;;
21018;SDS011;10667;51.056;3.732;2022-10-17T14:09:02;10.70;;;3.33;;
21018;SDS011;10667;51.056;3.732;2022-10-17T14:11:40;6.07;;;3.00;;
21018;SDS011;10667;51.056;3.732;2022-10-17T14:14:16;6.30;;;3.40;;
21018;SDS011;10667;51.056;3.732;2022-10-17T14:16:44;5.05;;;2.83;;
21018;SDS011;10667;51.056;3.732;2022-10-17T14:19:30;9.75;;;3.20;;
21018;SDS011;10667;51.056;3.732;2022-10-17T14:22:17;3.75;;;2.55;;
21018;SDS011;10667;51.056;3.732;2022-10-17T14:24:43;4.38;;;2.95;;
21018;SDS011;10667;51.056;3.732;2022-10-17T14:29:55;5.68;;;2.80;;
21018;SDS011;10667;51.056;3.732;2022-10-17T14:32:25;7.15;;;2.97;;
21018;SDS011;10667;51.056;3.732;2022-10-17T14:34:53;6.40;;;2.83;;
21018;SDS011;10667;51.056;3.732;2022-10-17T14:40:13;4.35;;;2.50;;
21018;SDS011;10667;51.056;3.732;2022-10-17T14:42:44;4.13;;;2.08;;
21018;SDS011;10667;51.056;3.732;2022-10-17T14:45:15;5.55;;;2.30;;
21018;SDS011;10667;51.056;3.732;2022-10-17T14:47:48;5.05;;;2.47;;
21018;SDS011;10667;51.056;3.732;2022-10-17T14:52:40;4.75;;;2.72;;
21018;SDS011;10667;51.056;3.732;2022-10-17T14:55:23;8.43;;;5.05;;
21018;SDS011;10667;51.056;3.732;2022-10-17T14:57:50;10.02;;;2.78;;
21018;SDS011;10667;51.056;3.732;2022-10-17T15:00:16;6.28;;;2.97;;
21018;SDS011;10667;51.056;3.732;2022-10-17T15:02:44;8.55;;;2.50;;
21018;SDS011;10667;51.056;3.732;2022-10-17T15:05:11;6.82;;;3.10;;
21018;SDS011;10667;51.056;3.732;2022-10-17T15:07:37;6.63;;;2.75;;
21018;SDS011;10667;51.056;3.732;2022-10-17T15:10:04;3.90;;;2.83;;
21018;SDS011;10667;51.056;3.732;2022-10-17T15:12:30;8.85;;;3.17;;
21018;SDS011;10667;51.056;3.732;2022-10-17T15:14:56;5.90;;;2.95;;
21018;SDS011;10667;51.056;3.732;2022-10-17T15:17:23;5.80;;;3.20;;
21018;SDS011;10667;51.056;3.732;2022-10-17T15:19:51;4.15;;;3.30;;
21018;SDS011;10667;51.056;3.732;2022-10-17T15:22:17;5.32;;;3.38;;
21018;SDS011;10667;51.056;3.732;2022-10-17T15:24:43;6.70;;;3.33;;
21018;SDS011;10667;51.056;3.732;2022-10-17T15:27:28;6.55;;;3.28;;
21018;SDS011;10667;51.056;3.732;2022-10-17T15:29:56;3.83;;;3.08;;
21018;SDS011;10667;51.056;3.732;2022-10-17T15:32:22;5.10;;;3.45;;
21018;SDS011;10667;51.056;3.732;2022-10-17T15:34:48;7.22;;;3.20;;
21018;SDS011;10667;51.056;3.732;2022-10-17T15:37:23;6.30;;;3.42;;
21018;SDS011;10667;51.056;3.732;2022-10-17T15:39:51;5.00;;;3.22;;
21018;SDS011;10667;51.056;3.732;2022-10-17T15:42:18;5.28;;;3.30;;
21018;SDS011;10667;51.056;3.732;2022-10-17T15:44:51;8.25;;;3.50;;
21018;SDS011;10667;51.056;3.732;2022-10-17T15:47:18;5.72;;;3.50;;
21018;SDS011;10667;51.056;3.732;2022-10-17T15:49:49;5.82;;;3.60;;
21018;SDS011;10667;51.056;3.732;2022-10-17T15:52:14;5.30;;;3.38;;
21018;SDS011;10667;51.056;3.732;2022-10-17T15:54:40;6.95;;;3.72;;
21018;SDS011;10667;51.056;3.732;2022-10-17T15:57:07;8.35;;;3.47;;
21018;SDS011;10667;51.056;3.732;2022-10-17T15:59:44;11.32;;;3.65;;
21018;SDS011;10667;51.056;3.732;2022-10-17T16:02:12;7.35;;;3.38;;
21018;SDS011;10667;51.056;3.732;2022-10-17T16:04:39;14.80;;;4.47;;
21018;SDS011;10667;51.056;3.732;2022-10-17T16:07:05;5.60;;;3.85;;
21018;SDS011;10667;51.056;3.732;2022-10-17T16:09:31;5.93;;;3.30;;
21018;SDS011;10667;51.056;3.732;2022-10-17T16:11:59;6.30;;;3.38;;
21018;SDS011;10667;51.056;3.732;2022-10-17T16:14:25;5.93;;;3.00;;
21018;SDS011;10667;51.056;3.732;2022-10-17T16:16:51;6.38;;;3.42;;
21018;SDS011;10667;51.056;3.732;2022-10-17T16:19:17;6.30;;;3.35;;
21018;SDS011;10667;51.056;3.732;2022-10-17T16:21:42;7.85;;;3.78;;
21018;SDS011;10667;51.056;3.732;2022-10-17T16:24:09;8.05;;;3.35;;
21018;SDS011;10667;51.056;3.732;2022-10-17T16:26:36;8.07;;;3.80;;
21018;SDS011;10667;51.056;3.732;2022-10-17T16:29:03;4.65;;;3.28;;
21018;SDS011;10667;51.056;3.732;2022-10-17T16:31:29;9.73;;;7.85;;
21018;SDS011;10667;51.056;3.732;2022-10-17T16:33:57;7.68;;;3.65;;
21018;SDS011;10667;51.056;3.732;2022-10-17T16:36:24;7.32;;;4.05;;
21018;SDS011;10667;51.056;3.732;2022-10-17T16:38:50;7.53;;;4.57;;
21018;SDS011;10667;51.056;3.732;2022-10-17T16:43:51;6.35;;;3.95;;
21018;SDS011;10667;51.056;3.732;2022-10-17T16:46:22;10.75;;;4.15;;
21018;SDS011;10667;51.056;3.732;2022-10-17T16:48:49;10.05;;;5.70;;
21018;SDS011;10667;51.056;3.732;2022-10-17T16:51:16;8.63;;;4.35;;
21018;SDS011;10667;51.056;3.732;2022-10-17T16:53:43;6.50;;;4.38;;
21018;SDS011;10667;51.056;3.732;2022-10-17T16:56:11;9.00;;;4.38;;
21018;SDS011;10667;51.056;3.732;2022-10-17T16:58:39;6.38;;;4.43;;
21018;SDS011;10667;51.056;3.732;2022-10-17T17:01:07;8.73;;;4.50;;
21018;SDS011;10667;51.056;3.732;2022-10-17T17:03:38;7.53;;;4.55;;
21018;SDS011;10667;51.056;3.732;2022-10-17T17:06:05;17.42;;;10.48;;
21018;SDS011;10667;51.056;3.732;2022-10-17T17:08:32;11.98;;;7.35;;
21018;SDS011;10667;51.056;3.732;2022-10-17T17:11:01;37.25;;;26.90;;